nws-alerts: Checking more than four warning/county codes can delay the loading of your pages. You should use a cron job to get the data.

Nearby METAR Reports

 

KFCI - Richmond/Chester, Virginia, USA
Distance from station: ESE 7mi, 11km
Updated: Sun, 11-Oct-2020 8:56pm EDT
NOT Current
Light rain, Mist, Overcast
Light rain, Mist, Overcast
 Wind from ESE
Wind: ESE 8 mph , 13 km/h
Temperature: 64°F , 18°C
Dew Point: 64°F , 18°C
Humidity: 100%
Barometer: 29.98 inHg , 1015.2 hPa
Summary: Light rain, Mist
Clouds: Overcast
Visibility: 4 miles , 6 km
Cloud details: Overcast 400 ft
2020/10/12 00:56 KFCI 120056Z AUTO 11007KT 4SM -RA BR OVC004 18/18 A2998 RMK AO2 SLP162 T01830183 PNO $
KRIC - Richmond, Virginia, USA
Distance from station: ENE 19mi, 30km
Updated: Thu, 22-Oct-2020 3:54pm EDT
Mostly cloudy
Mostly cloudy
 Wind from calm
Wind: Calm
Temperature: 81°F , 27°C
Heat Index: 82°F , 28°C
Dew Point: 61°F , 16°C
Humidity: 51%
Barometer: 30.18 inHg , 1022 hPa
Clouds: Mostly cloudy
Visibility: 10 miles , 16 km
Cloud details: Partly cloudy 4500 ft
Mostly cloudy 30000 ft
2020/10/22 19:54 KRIC 221954Z 00000KT 10SM SCT045 BKN300 27/16 A3018 RMK AO2 SLP224 T02720156
 
KPTB - Petersburg, Virginia, USA
Distance from station: SSE 19mi, 31km
Updated: Thu, 22-Oct-2020 3:55pm EDT
Clear
Clear
 Wind from calm
Wind: Calm
Temperature: 79°F , 26°C
Dew Point: 61°F , 16°C
Humidity: 54%
Barometer: 30.19 inHg , 1022.4 hPa
Clouds: Clear
Visibility: 10 miles , 16 km
2020/10/22 19:55 KPTB 221955Z AUTO 00000KT 10SM CLR 26/16 A3019 RMK AO2 T02590160
KOFP - Richmond/Hanover, Virginia, USA
Distance from station: NNE 22mi, 36km
Updated: Thu, 22-Oct-2020 3:54pm EDT
Clear
Clear
 Wind from S
Wind: S 5 mph , 7 km/h
Temperature: 81°F , 27°C
Heat Index: 82°F , 28°C
Dew Point: 61°F , 16°C
Humidity: 51%
Barometer: 30.19 inHg , 1022.4 hPa
Clouds: Clear
Visibility: 10 miles , 16 km
2020/10/22 19:54 KOFP 221954Z AUTO 17004KT 10SM CLR 27/16 A3019 RMK AO2 SLP222 T02670161
 
KW96 - Quinton, Virginia, USA
Distance from station: E 28mi, 46km
Updated: Thu, 22-Oct-2020 3:55pm EDT
Clear
Clear
 Wind from calm
Wind: Calm
Temperature: 81°F , 27°C
Heat Index: 82°F , 28°C
Dew Point: 61°F , 16°C
Humidity: 51%
Barometer: 30.18 inHg , 1022 hPa
Clouds: Clear
Visibility: 10 miles , 16 km
2020/10/22 19:55 KW96 221955Z AUTO 00000KT 10SM CLR 27/16 A3018 RMK AO1 T02700164
KBKT - Blackstone Army, Virginia, USA
Distance from station: SW 30mi, 48km
Updated: Thu, 22-Oct-2020 3:58pm EDT
Few Clouds
Few Clouds
 Wind from calm
Wind: Calm
Temperature: 79°F , 26°C
Dew Point: 61°F , 16°C
Humidity: 54%
Barometer: 30.19 inHg , 1022.4 hPa
Clouds: Few Clouds
Visibility: 9 miles , 14 km
Cloud details: Few Clouds 27000 ft
2020/10/22 19:58 KBKT 221958Z AUTO 00000KT 9SM FEW270 26/16 A3019 RMK AO2 SLP224 T02550161
 
KW81 - Crewe, Virginia, USA
Distance from station: SW 30mi, 49km
Updated: Thu, 22-Oct-2020 3:55pm EDT
Mostly cloudy
Mostly cloudy
 Wind from calm
Wind: Calm
Barometer: 30.18 inHg , 1022 hPa
Clouds: Mostly cloudy
Visibility: 10 miles , 16 km
Cloud details: Mostly cloudy 4400 ft
2020/10/22 19:55 KW81 221955Z AUTO 00000KT 10SM BKN044 A3018 RMK AO1
K7W4 - Bumpass, Virginia, USA
Distance from station: N 38mi, 61km
Updated: Thu, 22-Oct-2020 3:55pm EDT
Clear
Clear
 Wind from S
Wind: S 3 mph , 6 km/h
Temperature: 81°F , 27°C
Heat Index: 81°F , 27°C
Dew Point: 57°F , 14°C
Humidity: 45%
Barometer: 30.18 inHg , 1022 hPa
Clouds: Clear
Visibility: 10 miles , 16 km
2020/10/22 19:55 K7W4 221955Z AUTO 18003KT 10SM CLR 27/14 A3018 RMK AO1 T02670142
 
KFVX - Farmville, Virginia, USA
Distance from station: W 43mi, 69km
Updated: Thu, 22-Oct-2020 3:55pm EDT
Mostly cloudy
Mostly cloudy
 Wind from SSW
Wind: SSW 5 mph , 7 km/h
Temperature: 81°F , 27°C
Heat Index: 82°F , 28°C
Dew Point: 63°F , 17°C
Humidity: 54%
Barometer: 30.17 inHg , 1021.7 hPa
Clouds: Mostly cloudy
Visibility: 10 miles , 16 km
Cloud details: Partly cloudy 4900 ft
Mostly cloudy 6000 ft
2020/10/22 19:55 KFVX 221955Z AUTO 20004KT 10SM SCT049 BKN060 27/17 A3017 RMK AO2 T02690167
KW31 - Kenbridge, Virginia, USA
Distance from station: SW 43mi, 70km
Updated: Thu, 22-Oct-2020 3:55pm EDT
Overcast
Overcast
 Wind from calm
Wind: Calm
Temperature: 75°F , 24°C
Dew Point: 63°F , 17°C
Humidity: 65%
Barometer: 30.19 inHg , 1022.4 hPa
Clouds: Overcast
Visibility: 10 miles , 16 km
Cloud details: Partly cloudy 4800 ft
Overcast 6000 ft
2020/10/22 19:55 KW31 221955Z AUTO 00000KT 10SM SCT048 OVC060 24/17 A3019 RMK AO1 T02420173
 
KLKU - Louisa, Virginia, USA
Distance from station: NNW 44mi, 72km
Updated: Thu, 22-Oct-2020 3:55pm EDT
Mostly cloudy
Mostly cloudy
 Wind from S
Wind: S 6 mph , 9 km/h
Temperature: 81°F , 27°C
Heat Index: 82°F , 28°C
Dew Point: 61°F , 16°C
Humidity: 51%
Barometer: 30.22 inHg , 1023.4 hPa
Clouds: Mostly cloudy
Visibility: 10 miles , 16 km
Cloud details: Mostly cloudy 5000 ft
2020/10/22 19:55 KLKU 221955Z AUTO 17005KT 10SM BKN050 27/16 A3022 RMK AO2 T02700159
KLVL - Lawrenceville, Virginia, USA
Distance from station: S 46mi, 75km
Updated: Thu, 22-Oct-2020 3:55pm EDT
Partly cloudy
Partly cloudy
 Wind from SSE
Wind: SSE 5 mph , 7 km/h
Temperature: 77°F , 25°C
Dew Point: 61°F , 16°C
Humidity: 57%
Barometer: 30.21 inHg , 1023 hPa
Clouds: Partly cloudy
Visibility: 10 miles , 16 km
Cloud details: Partly cloudy 3800 ft
2020/10/22 19:55 KLVL 221955Z AUTO 15004KT 10SM SCT038 25/16 A3021 RMK AO1 T02500158
 
KAKQ - Norfolk/Wakefld, Virginia, USA
Distance from station: SE 47mi, 75km
Updated: Thu, 22-Oct-2020 3:54pm EDT
Clear
Clear
 Wind from ESE
Wind: ESE 5 mph , 7 km/h
Temperature: 79°F , 26°C
Dew Point: 61°F , 16°C
Humidity: 54%
Barometer: 30.19 inHg , 1022.4 hPa
Clouds: Clear
Visibility: 10 miles , 16 km
2020/10/22 19:54 KAKQ 221954Z AUTO 12004KT 10SM CLR 26/16 A3019 RMK AO2 SLP223 T02560161
KFYJ - West Point, Virginia, USA
Distance from station: E 48mi, 78km
Updated: Thu, 22-Oct-2020 3:55pm EDT
Clear
Clear
 Wind from SE
Wind: SE 6 mph , 9 km/h
Temperature: 79°F , 26°C
Dew Point: 61°F , 16°C
Humidity: 54%
Barometer: 30.20 inHg , 1022.7 hPa
Clouds: Clear
Visibility: 5 miles , 8 km
2020/10/22 19:55 KFYJ 221955Z AUTO 14005KT 5SM CLR 26/16 A3020 RMK AO1 T02600155